Time;durP1;ratioP1;P1;durP2;ratioP2;P2;SDS_P1;SDS_P2;PMS_P1;PMS_P2;Temp;Humidity;BMP_temperature;BMP_pressure;BME280_temperature;BME280_humidity;BME280_pressure;Samples;Min_cycle;Max_cycle;Signal;HPM_P1;HPM_P2
2023/12/06 08:10:57;;;;;;;;;6.33;5.50;;;;;11.07;69.29;101554.06;2011598;27;2746413;-77
2023/12/06 08:12:08;;;;;;;;;5.00;5.00;;;;;11.63;68.70;101558.03;2017943;28;2735161;-76
2023/12/06 08:13:24;;;;;;;;;5.67;4.83;;;;;12.21;67.67;101556.66;2016379;28;2746139;-76
2023/12/06 08:14:40;;;;;;;;;5.50;4.00;;;;;12.82;66.51;101557.59;2035583;27;2737788;-77
2023/12/06 08:15:53;;;;;;;;;5.83;4.67;;;;;13.37;65.48;101560.38;2030311;27;2738811;-76
2023/12/06 08:17:06;;;;;;;;;6.67;4.83;;;;;13.88;64.47;101547.31;2025197;28;2735714;-77
2023/12/06 08:18:16;;;;;;;;;5.00;3.00;;;;;14.35;63.89;101548.34;1998367;28;2754506;-76
2023/12/06 08:19:27;;;;;;;;;3.00;3.00;;;;;14.80;62.79;101555.53;2042190;28;2731512;-77
2023/12/06 08:20:40;;;;;;;;;3.83;3.33;;;;;15.23;62.29;101560.13;2041236;28;2741929;-77
2023/12/06 08:21:55;;;;;;;;;4.00;3.50;;;;;15.62;61.23;101558.59;2019051;28;2749248;-77
2023/12/06 08:23:05;;;;;;;;;4.33;4.33;;;;;15.97;60.71;101560.69;1992983;28;3460672;-77
2023/12/06 08:24:16;;;;;;;;;4.00;3.00;;;;;16.30;59.88;101552.19;2042532;28;2724225;-77
2023/12/06 08:25:26;;;;;;;;;3.67;3.00;;;;;16.62;59.69;101562.28;2015974;28;2747212;-77
2023/12/06 08:26:38;;;;;;;;;3.00;2.33;;;;;16.92;59.05;101562.72;2045364;28;2742464;-80
2023/12/06 08:27:51;;;;;;;;;7.00;3.17;;;;;17.20;58.27;101561.47;2019087;27;2747198;-76
2023/12/06 08:29:02;;;;;;;;;4.00;4.00;;;;;17.44;57.62;101563.84;1991697;28;2746177;-77
2023/12/06 08:30:13;;;;;;;;;3.00;3.00;;;;;17.68;57.73;101566.22;2035843;28;2745121;-75
2023/12/06 08:31:23;;;;;;;;;4.33;3.00;;;;;17.91;56.77;101568.66;2020012;28;2745065;-75
2023/12/06 08:32:34;;;;;;;;;3.33;3.33;;;;;18.11;56.74;101559.66;2026115;28;2748199;-75
2023/12/06 08:33:45;;;;;;;;;4.00;4.00;;;;;18.30;55.81;101562.22;2025723;28;2754605;-75
2023/12/06 08:34:56;;;;;;;;;4.33;4.00;;;;;18.49;55.54;101555.09;2030701;28;2748231;-75
2023/12/06 08:36:07;;;;;;;;;3.33;3.33;;;;;18.66;55.69;101562.16;2025604;28;2744074;-75
2023/12/06 08:37:18;;;;;;;;;4.00;4.00;;;;;18.82;55.08;101563.94;2014639;28;2746133;-77
2023/12/06 08:38:29;;;;;;;;;5.33;4.33;;;;;18.97;54.49;101559.59;2028690;28;2746090;-75
2023/12/06 08:39:40;;;;;;;;;4.67;4.00;;;;;19.10;54.12;101557.09;2028911;28;2746082;-75
2023/12/06 08:40:50;;;;;;;;;6.33;4.00;;;;;19.24;53.89;101561.66;2029667;28;2744081;-75
2023/12/06 08:42:01;;;;;;;;;3.00;3.00;;;;;19.37;53.64;101563.63;2027157;28;3452319;-76
2023/12/06 08:43:12;;;;;;;;;5.00;4.33;;;;;19.49;53.30;101567.41;2029906;28;2743317;-75
2023/12/06 08:44:23;;;;;;;;;6.67;4.67;;;;;19.59;53.05;101565.91;2021888;28;2739863;-75
2023/12/06 08:45:34;;;;;;;;;3.33;3.33;;;;;19.70;52.60;101573.31;2027820;28;2746722;-75
2023/12/06 08:46:45;;;;;;;;;5.33;3.00;;;;;19.81;52.57;101571.78;2018749;28;2749314;-74
2023/12/06 08:47:57;;;;;;;;;1.50;0.00;;;;;19.89;52.09;101561.53;2041516;28;2733695;-76
2023/12/06 08:49:07;;;;;;;;;4.00;2.67;;;;;19.97;51.59;101569.94;2014724;28;2745064;-76
2023/12/06 08:50:18;;;;;;;;;4.67;4.00;;;;;20.07;51.42;101569.38;2027107;28;2748270;-77
2023/12/06 08:51:29;;;;;;;;;6.00;5.00;;;;;20.15;51.49;101564.44;2029812;28;2747211;-77
2023/12/06 08:52:40;;;;;;;;;5.67;4.00;;;;;20.22;51.08;101567.63;2031829;28;2749661;-74
2023/12/06 08:53:53;;;;;;;;;3.00;3.00;;;;;20.29;50.91;101576.97;2042282;28;2738803;-75
2023/12/06 08:55:04;;;;;;;;;5.00;3.00;;;;;20.37;50.95;101573.84;2014435;28;3459680;-77
2023/12/06 08:56:15;;;;;;;;;4.00;4.00;;;;;20.45;50.74;101570.66;2013717;28;2752966;-72
2023/12/06 08:57:27;;;;;;;;;4.00;4.00;;;;;20.52;50.60;101573.84;2030795;28;2750349;-75
2023/12/06 18:48:20;;;;;;;;;4.50;4.50;;;;;17.60;49.79;101771.31;1993667;27;2746106;-86
2023/12/06 18:49:31;;;;;;;;;6.00;6.00;;;;;17.73;50.12;101771.56;2009467;28;2739805;-84
2023/12/06 18:50:42;;;;;;;;;4.33;4.33;;;;;17.91;49.49;101774.28;2024494;27;2746158;-86
2023/12/06 18:51:53;;;;;;;;;8.33;6.67;;;;;18.08;49.15;101776.13;2037632;28;3455430;-84
2023/12/06 18:53:03;;;;;;;;;6.00;5.00;;;;;18.29;49.28;101781.41;2038805;27;2740487;-83
2023/12/06 18:54:14;;;;;;;;;6.00;6.00;;;;;18.47;48.67;101778.72;2031583;27;2739934;-84
2023/12/06 18:55:25;;;;;;;;;5.00;5.00;;;;;18.63;47.95;101783.28;2038292;28;2748170;-86
2023/12/06 18:56:36;;;;;;;;;6.00;5.00;;;;;18.78;48.20;101779.84;2039785;28;3459612;-87
2023/12/06 18:57:47;;;;;;;;;8.33;7.00;;;;;18.94;48.14;101779.03;2039510;28;2737885;-85
2023/12/06 18:58:59;;;;;;;;;7.75;6.75;;;;;19.07;47.98;101776.59;2050486;28;2733627;-87
2023/12/06 19:00:10;;;;;;;;;8.33;6.33;;;;;19.22;47.58;101782.94;2022615;28;3458947;-87
2023/12/06 19:01:20;;;;;;;;;5.67;5.00;;;;;19.36;47.66;101772.50;2023613;28;2736768;-85
2023/12/06 19:02:31;;;;;;;;;6.67;5.00;;;;;19.48;47.03;101771.84;2032200;27;2745053;-87
2023/12/06 19:03:47;;;;;;;;;5.25;5.00;;;;;19.60;46.72;101769.44;2050167;28;2734652;-89
2023/12/06 19:04:57;;;;;;;;;7.67;4.67;;;;;19.72;46.67;101766.09;2020769;27;2748249;-88
2023/12/06 19:06:08;;;;;;;;;7.33;5.67;;;;;19.84;46.45;101763.66;2036802;27;2743069;-86
2023/12/06 19:07:20;;;;;;;;;7.00;6.00;;;;;19.95;46.04;101763.91;2049860;28;2738896;-89
2023/12/06 19:08:31;;;;;;;;;4.67;4.67;;;;;20.05;46.21;101769.56;2001448;28;3453397;-88
2023/12/06 19:09:42;;;;;;;;;7.00;7.00;;;;;20.14;45.86;101770.91;2025215;28;2742038;-84
2023/12/06 19:10:55;;;;;;;;;7.67;7.50;;;;;20.23;46.19;101778.38;2046000;28;2728401;-86
2023/12/06 19:12:06;;;;;;;;;4.67;4.00;;;;;20.33;46.13;101773.38;1999166;28;2755061;-85
2023/12/06 19:13:17;;;;;;;;;5.00;5.00;;;;;20.43;46.00;101778.16;2026007;28;2738979;-83
2023/12/06 19:14:29;;;;;;;;;6.25;5.00;;;;;20.52;46.15;101782.94;2048586;27;1808585;-83
2023/12/06 19:15:43;;;;;;;;;9.17;5.50;;;;;20.60;45.84;101786.97;2044847;28;2729428;-84
2023/12/06 19:16:54;;;;;;;;;6.00;5.00;;;;;20.68;45.77;101790.06;1995098;28;3461750;-83
2023/12/06 19:18:04;;;;;;;;;6.67;6.67;;;;;20.75;45.60;101795.88;2017136;28;3447100;-82
2023/12/06 19:19:15;;;;;;;;;7.00;6.33;;;;;20.82;45.49;101793.72;2047527;28;2740880;-82
2023/12/06 19:20:27;;;;;;;;;7.33;6.33;;;;;20.89;45.23;101801.25;2015450;28;1811203;-83
2023/12/06 19:21:37;;;;;;;;;6.00;6.00;;;;;20.96;45.19;101801.78;2002063;28;2735727;-82
2023/12/06 19:22:48;;;;;;;;;15.00;12.00;;;;;21.02;44.86;101806.75;2040435;28;2788833;-82
2023/12/06 19:23:59;;;;;;;;;4.67;4.67;;;;;21.08;45.00;101805.53;2039627;28;2746633;-83
2023/12/06 19:25:10;;;;;;;;;7.00;7.00;;;;;21.14;44.96;101810.50;2039847;28;2739938;-83
2023/12/06 19:26:21;;;;;;;;;13.50;9.00;;;;;21.20;44.78;101803.91;2036476;28;2764864;-83
2023/12/06 19:27:33;;;;;;;;;12.33;8.00;;;;;21.26;44.48;101810.69;2010352;28;3487699;-85
2023/12/06 19:28:43;;;;;;;;;8.00;6.67;;;;;21.30;44.79;101801.53;2021302;28;2736802;-84
2023/12/06 19:29:54;;;;;;;;;11.67;8.33;;;;;21.36;44.52;101795.78;2055304;28;1831492;-85
2023/12/06 19:31:07;;;;;;;;;10.00;10.00;;;;;21.41;44.21;101794.66;2020720;28;2791949;-82
2023/12/06 19:32:17;;;;;;;;;11.00;8.50;;;;;21.45;44.59;101793.50;2000069;28;2765904;-84
2023/12/06 19:33:28;;;;;;;;;7.00;7.00;;;;;21.50;44.21;101788.72;2040688;28;2734703;-83
2023/12/06 19:34:39;;;;;;;;;12.00;9.00;;;;;21.54;44.85;101789.38;2035284;28;2775280;-83
2023/12/06 19:35:51;;;;;;;;;8.67;7.67;;;;;21.57;44.61;101799.88;2026342;28;2751383;-82
2023/12/06 19:37:03;;;;;;;;;9.00;7.50;;;;;21.61;44.33;101798.72;2036360;28;1827399;-83
2023/12/06 19:38:13;;;;;;;;;11.50;10.00;;;;;21.65;44.94;101807.44;2020738;28;2786670;-86
2023/12/06 19:39:24;;;;;;;;;11.00;8.00;;;;;21.66;44.90;101801.97;2015281;28;2764864;-86
2023/12/06 19:40:39;;;;;;;;;9.80;7.40;;;;;21.70;44.20;101808.00;2053378;28;1821659;-84
2023/12/06 19:41:52;;;;;;;;;7.67;7.33;;;;;21.71;44.35;101812.38;2055616;28;1819067;-85
2023/12/06 19:43:03;;;;;;;;;8.00;8.00;;;;;21.73;44.46;101807.78;2000531;28;2738808;-85
2023/12/06 19:44:14;;;;;;;;;7.00;7.00;;;;;21.74;44.24;101804.16;2056948;28;1806006;-86
2023/12/06 19:45:24;;;;;;;;;8.33;8.00;;;;;21.77;44.07;101806.66;2014813;28;1813784;-84
2023/12/06 19:46:37;;;;;;;;;9.00;9.00;;;;;21.79;44.15;101817.25;2027846;28;2738834;-85
2023/12/06 19:47:48;;;;;;;;;10.00;8.00;;;;;21.80;43.79;101816.28;2041114;27;1832104;-83
2023/12/06 19:49:00;;;;;;;;;10.25;8.00;;;;;21.83;43.96;101820.59;2041455;27;1831498;-80
2023/12/06 19:50:11;;;;;;;;;7.33;6.33;;;;;21.84;44.22;101816.94;2030435;27;3443991;-82
2023/12/06 19:51:21;;;;;;;;;9.00;7.00;;;;;21.87;44.23;101819.47;2030558;27;2738913;-83
2023/12/06 19:52:32;;;;;;;;;6.33;6.00;;;;;21.89;44.16;101812.19;2044802;27;2736682;-83
2023/12/06 19:53:43;;;;;;;;;8.00;7.00;;;;;21.90;43.71;101808.56;2064540;27;1821149;-83
2023/12/06 19:54:54;;;;;;;;;6.00;6.00;;;;;21.92;43.49;101801.28;2040170;27;1808591;-83
2023/12/06 19:56:06;;;;;;;;;8.00;6.00;;;;;21.92;43.47;101804.84;2042638;27;1813789;-78
2023/12/06 19:57:18;;;;;;;;;9.00;6.75;;;;;21.95;43.58;101797.56;2024069;27;1812817;-83
2023/12/06 19:58:28;;;;;;;;;2.00;2.00;;;;;21.95;42.89;101787.72;2032692;27;2747279;-81
2023/12/06 19:59:39;;;;;;;;;9.00;7.00;;;;;21.98;42.96;101789.31;2043945;27;3451660;-81
2023/12/06 20:00:50;;;;;;;;;10.33;7.33;;;;;21.99;43.44;101783.00;2033534;28;3471065;-80
2023/12/06 20:02:02;;;;;;;;;7.00;7.00;;;;;22.01;42.96;101783.75;2033316;28;2739837;-80
2023/12/06 20:03:12;;;;;;;;;7.00;7.00;;;;;22.02;43.13;101782.81;2026048;28;3445043;-81
2023/12/06 20:04:23;;;;;;;;;6.00;5.00;;;;;22.05;42.76;101776.41;2043724;27;2734632;-80
2023/12/06 20:05:34;;;;;;;;;6.00;5.00;;;;;22.06;42.55;101770.06;2041116;28;2739842;-81
2023/12/06 20:06:45;;;;;;;;;5.67;5.00;;;;;22.07;42.93;101767.31;2039662;28;2738139;-80
2023/12/06 20:07:56;;;;;;;;;6.00;4.00;;;;;22.08;42.63;101760.97;2040891;28;3464812;-82
2023/12/06 20:09:07;;;;;;;;;7.00;6.67;;;;;22.10;43.06;101756.38;2039371;27;3442930;-77
2023/12/06 20:10:18;;;;;;;;;10.00;7.00;;;;;22.12;42.95;101756.31;2016791;28;3462788;-80
2023/12/06 20:11:29;;;;;;;;;8.00;8.00;;;;;22.14;43.04;101754.38;2030965;28;3441908;-80
2023/12/06 20:12:41;;;;;;;;;9.00;7.33;;;;;22.16;42.54;101752.44;2036930;28;3464847;-83
2023/12/06 20:13:52;;;;;;;;;8.75;7.00;;;;;22.18;43.07;101755.88;2040694;27;1819542;-82
2023/12/06 20:15:03;;;;;;;;;7.00;6.33;;;;;22.19;42.30;101754.94;2028019;28;2744564;-83
2023/12/06 20:16:14;;;;;;;;;8.00;6.33;;;;;22.20;43.06;101753.94;2021342;28;2741453;-82
2023/12/06 20:17:25;;;;;;;;;5.67;4.33;;;;;22.22;42.54;101754.75;2037429;28;3452317;-82
2023/12/06 20:18:36;;;;;;;;;7.00;7.00;;;;;22.21;42.41;101750.31;2050877;28;2733595;-85
2023/12/06 20:19:46;;;;;;;;;8.00;8.00;;;;;22.22;42.04;101741.34;2005011;28;2737781;-83
2023/12/06 20:20:57;;;;;;;;;6.00;5.33;;;;;22.24;42.62;101743.91;2036934;28;2742427;-84
2023/12/06 20:22:08;;;;;;;;;10.00;7.00;;;;;22.26;41.71;101758.06;2034082;28;2754491;-80
2023/12/06 20:23:19;;;;;;;;;6.67;6.00;;;;;22.26;42.42;101755.38;2043362;28;2737725;-82
2023/12/06 20:24:30;;;;;;;;;7.00;6.67;;;;;22.25;41.81;101762.53;2044620;28;2733611;-81
2023/12/06 20:25:42;;;;;;;;;6.00;6.00;;;;;22.25;41.98;101759.84;2056440;28;1812743;-82
2023/12/06 20:26:53;;;;;;;;;7.00;6.33;;;;;22.26;41.83;101763.41;2030021;28;2737759;-90
2023/12/06 20:28:04;;;;;;;;;7.33;6.67;;;;;22.26;42.58;101764.28;2020912;28;3447091;-87
2023/12/06 20:29:15;;;;;;;;;5.67;5.67;;;;;22.27;42.51;101765.13;2030930;28;2745056;-84
2023/12/06 20:30:25;;;;;;;;;7.00;7.00;;;;;22.26;42.75;101766.94;2040081;28;2729441;-84
2023/12/06 20:31:37;;;;;;;;;6.00;4.00;;;;;22.28;42.78;101764.16;2033011;28;2742009;-86
2023/12/06 20:32:50;;;;;;;;;7.00;6.33;;;;;22.25;43.75;101762.53;2048012;28;2736828;-82
2023/12/06 20:34:02;;;;;;;;;8.33;6.00;;;;;22.24;43.55;101757.28;2027475;28;2746198;-83
2023/12/06 20:35:13;;;;;;;;;9.67;7.33;;;;;22.22;43.47;101757.41;2025377;28;3471085;-82
2023/12/06 20:36:23;;;;;;;;;6.33;6.33;;;;;22.20;44.01;101767.34;2025359;28;2737844;-82
2023/12/06 20:37:34;;;;;;;;;5.00;5.00;;;;;22.18;44.03;101765.72;2044211;27;3461718;-82
2023/12/06 20:38:45;;;;;;;;;5.67;5.67;;;;;22.17;43.71;101769.38;2031702;28;2731522;-82
2023/12/06 20:39:57;;;;;;;;;6.00;6.00;;;;;22.15;43.46;101770.31;2051904;28;2729460;-82
2023/12/06 20:41:10;;;;;;;;;4.33;4.33;;;;;22.13;43.52;101766.91;2048315;28;2737765;-82
2023/12/06 20:42:21;;;;;;;;;5.67;5.33;;;;;22.13;43.81;101760.69;1996747;28;3457547;-82
2023/12/06 20:43:31;;;;;;;;;6.33;5.67;;;;;22.12;44.58;101764.34;2024375;27;2731547;-82
2023/12/06 20:44:43;;;;;;;;;7.67;5.00;;;;;22.12;44.79;101767.88;2044916;28;2729450;-81
2023/12/06 20:45:57;;;;;;;;;6.00;6.00;;;;;22.11;44.11;101759.94;2036328;28;2731527;-81
2023/12/06 20:47:08;;;;;;;;;5.67;5.67;;;;;22.12;44.61;101761.66;2007289;28;1811693;-83
2023/12/06 20:48:20;;;;;;;;;4.75;4.75;;;;;22.13;43.88;101763.34;2018587;28;1810668;-82
2023/12/06 20:49:30;;;;;;;;;7.67;7.00;;;;;22.11;44.38;101760.78;2021603;28;3457563;-82
2023/12/06 20:50:41;;;;;;;;;4.67;4.67;;;;;22.12;43.81;101764.34;2041130;27;2745136;-81
2023/12/06 20:51:52;;;;;;;;;6.00;6.00;;;;;22.12;43.47;101761.66;2037671;28;3450653;-82
2023/12/06 20:53:04;;;;;;;;;7.33;5.67;;;;;22.13;43.19;101768.72;2024912;27;2737920;-82
2023/12/06 20:54:17;;;;;;;;;8.50;4.83;;;;;22.13;43.26;101769.56;2050202;28;2745055;-80
2023/12/06 20:55:27;;;;;;;;;8.33;6.67;;;;;22.15;43.08;101766.78;2003920;28;2734707;-81
2023/12/06 20:56:39;;;;;;;;;6.67;5.00;;;;;22.16;43.69;101771.19;2054227;27;1810672;-81
2023/12/06 20:57:51;;;;;;;;;7.33;7.33;;;;;22.17;43.63;101772.91;2009250;28;2738819;-82
2023/12/06 20:59:03;;;;;;;;;10.00;6.67;;;;;22.19;44.46;101771.00;2028792;28;3473169;-84
2023/12/06 21:00:14;;;;;;;;;5.00;4.67;;;;;22.20;44.32;101771.88;2029174;28;3454396;-79
2023/12/06 21:01:25;;;;;;;;;6.00;6.00;;;;;22.22;44.93;101778.84;2038783;28;2732574;-79
2023/12/06 21:02:36;;;;;;;;;8.00;6.00;;;;;22.24;44.39;101787.63;2022751;27;2726356;-82
2023/12/06 21:03:47;;;;;;;;;6.67;6.67;;;;;22.26;44.01;101787.50;2027450;28;2738815;-80
2023/12/06 21:04:57;;;;;;;;;9.33;7.00;;;;;22.28;44.68;101782.03;2030992;28;2737833;-79
2023/12/06 21:06:09;;;;;;;;;5.33;5.33;;;;;22.30;43.51;101780.13;2035806;27;3459652;-88
2023/12/06 21:07:19;;;;;;;;;5.33;5.33;;;;;22.30;43.64;101780.97;2026661;28;2746242;-81
2023/12/06 21:08:30;;;;;;;;;5.67;4.00;;;;;22.33;44.43;101780.78;2042220;28;3457564;-81
2023/12/06 21:09:41;;;;;;;;;7.67;6.33;;;;;22.34;43.37;101784.31;2036893;28;2737807;-82
2023/12/06 21:10:56;;;;;;;;;7.67;6.33;;;;;22.35;43.63;101784.19;2036769;27;2746185;-81
2023/12/06 21:12:07;;;;;;;;;8.00;6.67;;;;;22.36;43.62;101779.72;2022356;27;2734699;-82
2023/12/06 21:13:18;;;;;;;;;7.33;7.33;;;;;22.37;43.85;101778.75;2037956;28;3457520;-82
2023/12/06 21:14:28;;;;;;;;;6.33;5.33;;;;;22.37;44.06;101776.09;2035761;27;2746106;-82
2023/12/06 21:15:39;;;;;;;;;7.67;6.67;;;;;22.37;43.88;101774.25;2048397;28;2730552;-75
2023/12/06 21:16:50;;;;;;;;;8.00;8.00;;;;;22.37;43.34;101773.41;2003088;27;2736739;-77
2023/12/06 21:18:01;;;;;;;;;7.00;7.00;;;;;22.36;43.10;101771.69;2037838;27;2736776;-77
2023/12/06 21:19:12;;;;;;;;;8.00;5.33;;;;;22.34;44.11;101777.16;2027056;28;3446105;-83
2023/12/06 21:20:23;;;;;;;;;10.25;7.75;;;;;22.34;43.48;101777.16;2048416;27;1820106;-76
2023/12/06 21:21:33;;;;;;;;;6.00;6.00;;;;;22.34;43.44;101778.97;2002200;28;2737874;-76
2023/12/06 21:22:45;;;;;;;;;8.25;6.25;;;;;22.34;43.57;101773.59;2051886;28;2733592;-76
2023/12/06 21:23:55;;;;;;;;;8.00;7.33;;;;;22.33;43.64;101769.19;2027258;28;2734662;-76
2023/12/06 21:25:06;;;;;;;;;7.50;7.50;;;;;22.32;43.39;101775.53;2041817;28;2746094;-77
2023/12/06 21:26:17;;;;;;;;;5.00;5.00;;;;;22.31;43.88;101771.13;2038523;28;2734597;-77
2023/12/06 21:27:29;;;;;;;;;5.00;5.00;;;;;22.29;43.48;101775.72;2040443;28;2742415;-76
2023/12/06 21:28:40;;;;;;;;;8.00;7.00;;;;;22.29;42.69;101778.41;2043853;28;1810664;-77
2023/12/06 21:29:50;;;;;;;;;9.00;7.00;;;;;22.27;43.62;101781.19;2024673;28;2734640;-77
2023/12/06 21:31:01;;;;;;;;;11.50;6.50;;;;;22.28;43.48;101787.38;2037737;27;2751339;-76
2023/12/06 21:32:12;;;;;;;;;6.50;6.50;;;;;22.26;43.76;101788.38;2031649;28;2468017;-77
2023/12/06 21:33:23;;;;;;;;;6.33;6.33;;;;;22.27;42.72;101786.56;2055793;28;1812885;-78
2023/12/06 21:34:35;;;;;;;;;6.67;6.67;;;;;22.26;43.27;101796.41;2000859;28;2730514;-77
2023/12/06 21:35:45;;;;;;;;;9.00;7.00;;;;;22.26;43.71;101793.72;2018481;28;3446174;-77
2023/12/06 21:36:56;;;;;;;;;9.00;7.00;;;;;22.25;43.39;101794.66;2043482;28;2738882;-78
2023/12/06 21:38:08;;;;;;;;;7.75;7.00;;;;;22.26;43.67;101799.06;2057200;28;1825773;-77
2023/12/06 21:39:18;;;;;;;;;6.00;6.00;;;;;22.26;43.11;101792.84;2026838;28;3442958;-83
2023/12/06 21:40:29;;;;;;;;;9.00;9.00;;;;;22.27;42.86;101799.94;2041824;28;2743069;-79
2023/12/06 21:41:41;;;;;;;;;9.00;7.25;;;;;22.28;42.19;101792.75;2055238;28;1824334;-79
2023/12/06 21:42:51;;;;;;;;;6.33;6.33;;;;;22.29;42.26;101797.16;2024668;28;2734724;-79
2023/12/06 21:44:02;;;;;;;;;8.00;6.67;;;;;22.28;42.95;101804.31;2038642;27;3447168;-79
2023/12/06 21:45:15;;;;;;;;;6.00;6.00;;;;;22.28;42.19;101808.81;2038708;28;2738802;-79
2023/12/06 21:46:28;;;;;;;;;5.83;5.83;;;;;22.26;42.28;101804.44;2050655;28;2730479;-79
2023/12/06 21:47:39;;;;;;;;;7.67;6.33;;;;;22.26;42.72;101798.22;2000589;28;2741981;-79
2023/12/06 21:48:50;;;;;;;;;7.00;5.00;;;;;22.25;42.95;101800.03;2027006;28;2745184;-79
2023/12/06 21:50:02;;;;;;;;;8.33;7.00;;;;;22.25;42.64;101788.44;2057811;28;1825797;-79
2023/12/06 21:51:17;;;;;;;;;8.00;6.33;;;;;22.23;42.35;101791.25;1999502;28;3450272;-78
2023/12/06 21:52:30;;;;;;;;;8.83;7.83;;;;;22.24;42.78;101787.63;2050731;28;2729435;-77
2023/12/06 21:53:40;;;;;;;;;11.50;8.50;;;;;22.24;42.64;101790.28;1998941;27;2769130;-77
2023/12/06 21:54:51;;;;;;;;;8.00;8.00;;;;;22.24;43.16;101790.28;2010183;27;2746095;-76
2023/12/06 21:56:02;;;;;;;;;6.33;5.33;;;;;22.26;43.17;101790.19;2033205;27;2736902;-79
2023/12/06 21:57:13;;;;;;;;;8.00;7.00;;;;;22.26;43.03;101785.69;2029679;27;2739913;-76
2023/12/06 21:58:25;;;;;;;;;9.25;8.00;;;;;22.27;42.58;101783.88;2052520;27;1815977;-78
2023/12/06 21:59:35;;;;;;;;;7.00;7.00;;;;;22.29;42.22;101778.41;2021015;28;3439841;-77
2023/12/06 22:00:46;;;;;;;;;7.33;7.00;;;;;22.30;42.69;101777.47;2058572;28;1816994;-77
2023/12/06 22:01:57;;;;;;;;;8.00;7.00;;;;;22.29;41.83;101775.72;2003674;28;2741412;-77
2023/12/06 22:03:08;;;;;;;;;8.00;8.00;;;;;22.30;42.38;101774.78;2033509;27;3444058;-76
2023/12/06 22:04:19;;;;;;;;;6.00;6.00;;;;;22.30;42.75;101774.78;2048869;27;2725270;-78
2023/12/06 22:05:29;;;;;;;;;8.00;5.67;;;;;22.29;42.79;101779.28;2003622;27;2738933;-78
2023/12/06 22:06:40;;;;;;;;;7.00;7.00;;;;;22.30;42.27;101785.50;2054721;27;1821142;-79
2023/12/06 22:07:51;;;;;;;;;10.00;7.33;;;;;22.31;42.40;101787.19;2022689;27;3467988;-78
2023/12/06 22:09:02;;;;;;;;;7.33;7.33;;;;;22.31;42.32;101790.72;2026903;28;2737959;-78
2023/12/06 22:10:13;;;;;;;;;6.00;6.00;;;;;22.33;42.38;101790.63;2017863;27;3445057;-78
2023/12/06 22:11:24;;;;;;;;;7.67;6.67;;;;;22.33;42.09;101787.94;2041590;28;2741038;-78
2023/12/06 22:12:35;;;;;;;;;7.67;7.00;;;;;22.33;41.74;101785.25;2034840;28;3450257;-78
2023/12/06 22:13:45;;;;;;;;;6.00;6.00;;;;;22.33;41.88;101791.47;2038427;28;2738820;-78
2023/12/06 22:14:56;;;;;;;;;8.67;7.00;;;;;22.34;41.95;101792.34;2040894;27;2734765;-76
2023/12/06 22:16:09;;;;;;;;;7.20;6.60;;;;;22.34;41.81;101792.34;2059118;27;1819657;-77
2023/12/06 22:17:19;;;;;;;;;11.33;8.00;;;;;22.34;41.95;101790.53;2025228;28;3477630;-78
2023/12/06 22:18:30;;;;;;;;;6.33;6.33;;;;;22.36;41.92;101795.78;2036364;27;2736744;-78
2023/12/06 22:19:41;;;;;;;;;6.00;6.00;;;;;22.35;41.50;101794.03;2038471;28;2746913;-78
2023/12/06 22:20:52;;;;;;;;;8.33;7.33;;;;;22.36;41.67;101793.09;2049679;28;1832637;-77
2023/12/06 22:22:04;;;;;;;;;7.00;5.00;;;;;22.36;41.26;101795.78;2029145;28;1810755;-78
2023/12/06 22:23:14;;;;;;;;;8.00;7.00;;;;;22.36;41.78;101795.78;2023741;28;2733631;-76
2023/12/06 22:24:26;;;;;;;;;4.00;3.00;;;;;22.35;42.00;101791.38;2041329;28;2750454;-76
2023/12/06 22:25:36;;;;;;;;;8.00;7.00;;;;;22.35;41.34;101786.88;2016604;28;2733622;-76
2023/12/06 22:26:47;;;;;;;;;7.67;6.33;;;;;22.35;42.16;101783.34;2030455;28;2732567;-77
2023/12/06 22:27:58;;;;;;;;;7.67;6.33;;;;;22.34;41.85;101778.97;2040162;28;2740890;-77
2023/12/06 22:29:09;;;;;;;;;6.33;6.00;;;;;22.33;41.42;101775.41;2040252;28;2732622;-77
2023/12/06 22:30:20;;;;;;;;;6.00;6.00;;;;;22.33;41.26;101774.56;2053135;28;1814877;-78
2023/12/06 22:31:32;;;;;;;;;7.00;6.00;;;;;22.32;41.43;101770.19;2022376;28;1819041;-77
2023/12/06 22:32:43;;;;;;;;;7.00;6.00;;;;;22.31;41.88;101771.13;2032320;28;1821211;-78
2023/12/06 22:33:54;;;;;;;;;8.33;8.00;;;;;22.30;41.65;101770.25;2017107;28;3445548;-78
2023/12/06 22:35:05;;;;;;;;;5.33;5.33;;;;;22.30;42.19;101782.81;2038485;28;2740972;-78
2023/12/06 22:36:15;;;;;;;;;8.00;6.33;;;;;22.29;42.02;101784.63;2026277;28;3448176;-76
2023/12/06 22:37:26;;;;;;;;;8.00;6.00;;;;;22.29;41.60;101795.34;2039454;28;2740890;-78
2023/12/06 22:38:37;;;;;;;;;6.00;6.00;;;;;22.29;41.39;101794.47;2039994;28;2466915;-77
2023/12/06 22:39:48;;;;;;;;;8.00;6.33;;;;;22.29;41.68;101797.16;2034158;28;3453330;-77
2023/12/06 22:40:59;;;;;;;;;8.00;8.00;;;;;22.28;41.38;101792.75;2040649;27;2737923;-77
2023/12/06 22:42:10;;;;;;;;;6.67;6.67;;;;;22.26;41.46;101791.03;2038165;28;3449211;-77
2023/12/06 22:43:22;;;;;;;;;8.60;7.80;;;;;22.25;41.77;101792.00;2055021;28;1814886;-78
2023/12/06 22:44:32;;;;;;;;;7.00;6.00;;;;;22.24;41.34;101797.47;2025342;28;2738815;-77
2023/12/06 22:45:43;;;;;;;;;5.67;5.67;;;;;22.22;41.26;101800.25;2055915;27;1814868;-76
2023/12/06 22:46:53;;;;;;;;;7.00;7.00;;;;;22.22;41.20;101797.56;2023246;27;2744123;-77
2023/12/06 22:48:05;;;;;;;;;4.67;3.33;;;;;22.21;41.88;101795.84;2043386;28;2748250;-77
2023/12/06 22:49:17;;;;;;;;;7.00;6.00;;;;;22.19;41.59;101792.41;2053163;28;2730488;-77
2023/12/06 22:50:30;;;;;;;;;7.67;7.00;;;;;22.19;41.28;101791.53;2026534;28;2734699;-77
2023/12/06 22:51:41;;;;;;;;;6.00;5.00;;;;;22.18;41.87;101793.34;2002335;28;2748202;-80
